ANA56S RJTT-WSSS
Flight info
| Callsign | ANA56S |
|---|---|
| Flight time | N/A |
| Altitude | 38000 |
| Route | LAXAS Y56 TOHME Y54 KOHWA Y12 LAXEL Y52 IGURU G581 TULTO/N0493F400 G581 HCN N892 MIGUG/K0904F400 N892 MELAS/N0484F400 N892 MABAL MABAL2B |
| Aircraft | A388/J-SADE2E3FGHIJ3J4J5M1RWXY/LB1D1 |
Departure
| Time | 2026-05-06 05:30 |
|---|---|
| Airport | Tokyo Haneda International Airport (RJTT) |
Arrival
| Time | N/A |
|---|---|
| Airport | Singapore Changi Airport (WSSS) |
| Time | Latitude | Longitude | Altitude | Speed | Heading |
|---|---|---|---|---|---|
| 2026-05-06 05:10 | 35.54734 | 139.79248 | 27 ft | 0 kts | 330° |
| 2026-05-06 05:19 | 35.54730 | 139.79251 | 33 ft | 2 kts | 330° |
| 2026-05-06 05:19 | 35.54719 | 139.79259 | 14 ft | 3 kts | 330° |
| 2026-05-06 05:19 | 35.54692 | 139.79277 | 26 ft | 4 kts | 333° |
| 2026-05-06 05:20 | 35.54663 | 139.79281 | 26 ft | 4 kts | 8° |
| 2026-05-06 05:20 | 35.54637 | 139.79262 | 27 ft | 4 kts | 44° |
| 2026-05-06 05:20 | 35.54619 | 139.79233 | 27 ft | 3 kts | 58° |
| 2026-05-06 05:20 | 35.54618 | 139.79232 | 26 ft | 0 kts | 58° |
| 2026-05-06 05:22 | 35.54619 | 139.79234 | 28 ft | 1 kts | 58° |
| 2026-05-06 05:23 | 35.54632 | 139.79261 | 28 ft | 7 kts | 59° |
| 2026-05-06 05:23 | 35.54671 | 139.79342 | 28 ft | 15 kts | 59° |
| 2026-05-06 05:23 | 35.54819 | 139.79627 | 28 ft | 18 kts | 21° |
| 2026-05-06 05:24 | 35.54914 | 139.79585 | 28 ft | 15 kts | 331° |
| 2026-05-06 05:24 | 35.55027 | 139.79508 | 28 ft | 22 kts | 330° |
| 2026-05-06 05:24 | 35.55175 | 139.79405 | 28 ft | 27 kts | 330° |
| 2026-05-06 05:24 | 35.55353 | 139.79277 | 28 ft | 32 kts | 329° |
| 2026-05-06 05:25 | 35.55544 | 139.79139 | 28 ft | 32 kts | 329° |
| 2026-05-06 05:25 | 35.55730 | 139.79002 | 28 ft | 31 kts | 329° |
| 2026-05-06 05:25 | 35.55915 | 139.78874 | 28 ft | 30 kts | 331° |
| 2026-05-06 05:25 | 35.56098 | 139.78747 | 28 ft | 30 kts | 330° |
| 2026-05-06 05:26 | 35.56278 | 139.78622 | 28 ft | 30 kts | 331° |
| 2026-05-06 05:26 | 35.56450 | 139.78494 | 28 ft | 25 kts | 315° |
| 2026-05-06 05:26 | 35.56439 | 139.78370 | 28 ft | 17 kts | 238° |
| 2026-05-06 05:26 | 35.56381 | 139.78231 | 28 ft | 17 kts | 260° |
| 2026-05-06 05:27 | 35.56438 | 139.78142 | 28 ft | 17 kts | 331° |
| 2026-05-06 05:27 | 35.56542 | 139.78044 | 28 ft | 21 kts | 308° |
| 2026-05-06 05:27 | 35.56634 | 139.77885 | 28 ft | 25 kts | 306° |
| 2026-05-06 05:27 | 35.56682 | 139.77801 | 28 ft | 0 kts | 304° |
| 2026-05-06 05:28 | 35.56691 | 139.77785 | 28 ft | 6 kts | 303° |
| 2026-05-06 05:28 | 35.56727 | 139.77713 | 29 ft | 10 kts | 285° |
| 2026-05-06 05:28 | 35.56706 | 139.77668 | 28 ft | 7 kts | 210° |
| 2026-05-06 05:29 | 35.56669 | 139.77638 | 29 ft | 28 kts | 214° |
| 2026-05-06 05:29 | 35.56259 | 139.77287 | 29 ft | 112 kts | 214° |
| 2026-05-06 05:29 | 35.55452 | 139.76602 | 36 ft | 164 kts | 214° |
| 2026-05-06 05:29 | 35.54468 | 139.75846 | 548 ft | 166 kts | 203° |
| 2026-05-06 05:30 | 35.53364 | 139.75415 | 1171 ft | 167 kts | 186° |
| 2026-05-06 05:30 | 35.52219 | 139.75490 | 1865 ft | 167 kts | 172° |
| 2026-05-06 05:30 | 35.51025 | 139.75737 | 2214 ft | 181 kts | 172° |
| 2026-05-06 05:30 | 35.50157 | 139.75883 | 2320 ft | 192 kts | 174° |
| 2026-05-06 05:31 | 35.48781 | 139.76028 | 2414 ft | 214 kts | 178° |
| 2026-05-06 05:31 | 35.47197 | 139.76106 | 2709 ft | 236 kts | 179° |
| 2026-05-06 05:31 | 35.45511 | 139.76149 | 3151 ft | 250 kts | 180° |
| 2026-05-06 05:31 | 35.43755 | 139.76178 | 3904 ft | 254 kts | 181° |
| 2026-05-06 05:32 | 35.41980 | 139.76181 | 4680 ft | 257 kts | 182° |
| 2026-05-06 05:32 | 35.40177 | 139.76175 | 5424 ft | 261 kts | 182° |
| 2026-05-06 05:32 | 35.38364 | 139.76170 | 6343 ft | 260 kts | 181° |
| 2026-05-06 05:32 | 35.36546 | 139.76170 | 7062 ft | 263 kts | 181° |
| 2026-05-06 05:33 | 35.34714 | 139.76369 | 7772 ft | 269 kts | 171° |
| 2026-05-06 05:33 | 35.32874 | 139.76972 | 8464 ft | 276 kts | 165° |
| 2026-05-06 05:33 | 35.31019 | 139.77657 | 9138 ft | 281 kts | 165° |
| 2026-05-06 05:33 | 35.29135 | 139.78333 | 9858 ft | 285 kts | 166° |
| 2026-05-06 05:34 | 35.27209 | 139.79014 | 10487 ft | 291 kts | 167° |
| 2026-05-06 05:34 | 35.25199 | 139.79718 | 10682 ft | 311 kts | 167° |
| 2026-05-06 05:34 | 35.23031 | 139.80356 | 10844 ft | 326 kts | 178° |
| 2026-05-06 05:34 | 35.20765 | 139.80089 | 11225 ft | 330 kts | 200° |
| 2026-05-06 05:35 | 35.18747 | 139.78842 | 11909 ft | 325 kts | 220° |
| 2026-05-06 05:35 | 35.17147 | 139.76900 | 12613 ft | 323 kts | 229° |
| 2026-05-06 05:35 | 35.15634 | 139.74872 | 13363 ft | 323 kts | 230° |
| 2026-05-06 05:35 | 35.14118 | 139.72851 | 14065 ft | 323 kts | 230° |
| 2026-05-06 05:36 | 35.12595 | 139.70828 | 14620 ft | 325 kts | 230° |
| 2026-05-06 05:36 | 35.11210 | 139.68649 | 15146 ft | 325 kts | 240° |
| 2026-05-06 05:36 | 35.10209 | 139.66166 | 15691 ft | 326 kts | 250° |
| 2026-05-06 05:36 | 35.09624 | 139.63519 | 16248 ft | 328 kts | 258° |
| 2026-05-06 05:37 | 35.09201 | 139.60765 | 16769 ft | 331 kts | 258° |
| 2026-05-06 05:37 | 35.08754 | 139.57998 | 17300 ft | 333 kts | 258° |
| 2026-05-06 05:37 | 35.08294 | 139.55211 | 17810 ft | 335 kts | 258° |
| 2026-05-06 05:37 | 35.07830 | 139.52412 | 18337 ft | 338 kts | 258° |
| 2026-05-06 05:38 | 35.07363 | 139.49594 | 18802 ft | 340 kts | 258° |
| 2026-05-06 05:38 | 35.06894 | 139.46767 | 19277 ft | 340 kts | 258° |
| 2026-05-06 05:38 | 35.06423 | 139.43923 | 19724 ft | 342 kts | 258° |
| 2026-05-06 05:38 | 35.05950 | 139.41077 | 20157 ft | 343 kts | 257° |
| 2026-05-06 05:39 | 35.05474 | 139.38213 | 20603 ft | 345 kts | 257° |
| 2026-05-06 05:39 | 35.04995 | 139.35336 | 21041 ft | 347 kts | 257° |
| 2026-05-06 05:39 | 35.04519 | 139.32484 | 21462 ft | 348 kts | 256° |
| 2026-05-06 05:39 | 35.04034 | 139.29580 | 21887 ft | 350 kts | 256° |
| 2026-05-06 05:40 | 35.03546 | 139.26666 | 22318 ft | 351 kts | 256° |
| 2026-05-06 05:40 | 35.03054 | 139.23732 | 22739 ft | 353 kts | 256° |
| 2026-05-06 05:40 | 35.02561 | 139.20792 | 23136 ft | 355 kts | 255° |
| 2026-05-06 05:40 | 35.02063 | 139.17831 | 23555 ft | 357 kts | 255° |
| 2026-05-06 05:41 | 35.01562 | 139.14856 | 23926 ft | 359 kts | 255° |
| 2026-05-06 05:41 | 35.01060 | 139.11879 | 24318 ft | 358 kts | 255° |
| 2026-05-06 05:41 | 35.00558 | 139.08905 | 24704 ft | 359 kts | 255° |
| 2026-05-06 05:41 | 35.00053 | 139.05920 | 25078 ft | 360 kts | 255° |
| 2026-05-06 05:42 | 34.99549 | 139.02944 | 25578 ft | 357 kts | 256° |
| 2026-05-06 05:42 | 34.99044 | 138.99958 | 25884 ft | 361 kts | 256° |
| 2026-05-06 05:42 | 34.98693 | 138.96906 | 26291 ft | 365 kts | 261° |
| 2026-05-06 05:42 | 34.98543 | 138.93816 | 26725 ft | 366 kts | 262° |
| 2026-05-06 05:43 | 34.98391 | 138.90698 | 27123 ft | 367 kts | 262° |
| 2026-05-06 05:43 | 34.98230 | 138.87583 | 27583 ft | 367 kts | 262° |
| 2026-05-06 05:43 | 34.98067 | 138.84515 | 27935 ft | 370 kts | 262° |
| 2026-05-06 05:43 | 34.97900 | 138.81371 | 28408 ft | 370 kts | 262° |
| 2026-05-06 05:44 | 34.97734 | 138.78239 | 28965 ft | 370 kts | 262° |
| 2026-05-06 05:44 | 34.97567 | 138.75098 | 29407 ft | 372 kts | 262° |
| 2026-05-06 05:44 | 34.97398 | 138.71936 | 29842 ft | 374 kts | 262° |
| 2026-05-06 05:44 | 34.97228 | 138.68768 | 30281 ft | 376 kts | 262° |
| 2026-05-06 05:45 | 34.97057 | 138.65586 | 30684 ft | 377 kts | 262° |
| 2026-05-06 05:45 | 34.96884 | 138.62392 | 31089 ft | 378 kts | 262° |
| 2026-05-06 05:45 | 34.96710 | 138.59186 | 31484 ft | 379 kts | 262° |
| 2026-05-06 05:45 | 34.96534 | 138.55969 | 31878 ft | 380 kts | 262° |
| 2026-05-06 05:46 | 34.96357 | 138.52745 | 32261 ft | 382 kts | 262° |
| 2026-05-06 05:46 | 34.96179 | 138.49516 | 32644 ft | 383 kts | 262° |
| 2026-05-06 05:46 | 34.95999 | 138.46269 | 33031 ft | 384 kts | 262° |
| 2026-05-06 05:46 | 34.95817 | 138.43011 | 33427 ft | 386 kts | 262° |
| 2026-05-06 05:47 | 34.95635 | 138.39748 | 33813 ft | 387 kts | 262° |
| 2026-05-06 05:47 | 34.95453 | 138.36512 | 34177 ft | 388 kts | 262° |
| 2026-05-06 05:47 | 34.95266 | 138.33216 | 34514 ft | 390 kts | 262° |
| 2026-05-06 05:47 | 34.95080 | 138.29924 | 34958 ft | 389 kts | 262° |
| 2026-05-06 05:48 | 34.94893 | 138.26640 | 35481 ft | 386 kts | 262° |
| 2026-05-06 05:48 | 34.94709 | 138.23399 | 36088 ft | 380 kts | 262° |
| 2026-05-06 05:48 | 34.94528 | 138.20211 | 36692 ft | 375 kts | 261° |
| 2026-05-06 05:48 | 34.94346 | 138.17064 | 37243 ft | 371 kts | 261° |
| 2026-05-06 05:49 | 34.94162 | 138.13930 | 37698 ft | 369 kts | 261° |
| 2026-05-06 05:49 | 34.93979 | 138.10815 | 38118 ft | 368 kts | 261° |
| 2026-05-06 05:49 | 34.93614 | 138.04581 | 38186 ft | 366 kts | 261° |
| 2026-05-06 05:50 | 34.93246 | 137.98412 | 38186 ft | 369 kts | 261° |
| 2026-05-06 05:50 | 34.92871 | 137.92165 | 38188 ft | 369 kts | 260° |
| 2026-05-06 05:51 | 34.92491 | 137.85892 | 38189 ft | 377 kts | 260° |
| 2026-05-06 05:51 | 34.92099 | 137.79458 | 38181 ft | 380 kts | 261° |
| 2026-05-06 05:52 | 34.91707 | 137.73015 | 38177 ft | 381 kts | 260° |
| 2026-05-06 05:52 | 34.90880 | 137.66668 | 38185 ft | 377 kts | 253° |
| 2026-05-06 05:53 | 34.89292 | 137.60640 | 38178 ft | 375 kts | 248° |
| 2026-05-06 05:53 | 34.87492 | 137.54658 | 38172 ft | 376 kts | 248° |
| 2026-05-06 05:54 | 34.85698 | 137.48666 | 38174 ft | 378 kts | 248° |
| 2026-05-06 05:54 | 34.83937 | 137.42650 | 38173 ft | 376 kts | 249° |
| 2026-05-06 05:55 | 34.82232 | 137.36626 | 38174 ft | 377 kts | 249° |
| 2026-05-06 05:55 | 34.80513 | 137.30602 | 38172 ft | 377 kts | 249° |
| 2026-05-06 05:56 | 34.78786 | 137.24590 | 38172 ft | 377 kts | 249° |
| 2026-05-06 05:56 | 34.77064 | 137.18610 | 38171 ft | 377 kts | 249° |
| 2026-05-06 05:57 | 34.75327 | 137.12589 | 38168 ft | 377 kts | 248° |
| 2026-05-06 05:57 | 34.73586 | 137.06569 | 38167 ft | 377 kts | 248° |
| 2026-05-06 05:58 | 34.71774 | 137.00580 | 38165 ft | 377 kts | 244° |
| 2026-05-06 05:58 | 34.68990 | 136.95206 | 38163 ft | 378 kts | 232° |
| 2026-05-06 05:59 | 34.65103 | 136.90816 | 38165 ft | 385 kts | 223° |
| 2026-05-06 05:59 | 34.60855 | 136.86911 | 38164 ft | 385 kts | 223° |
| 2026-05-06 06:00 | 34.56595 | 136.82958 | 38168 ft | 385 kts | 223° |
| 2026-05-06 06:00 | 34.52335 | 136.79018 | 38168 ft | 384 kts | 223° |
| 2026-05-06 06:01 | 34.48077 | 136.75090 | 38173 ft | 385 kts | 223° |
| 2026-05-06 06:01 | 34.43806 | 136.71155 | 38171 ft | 386 kts | 223° |
| 2026-05-06 06:02 | 34.39546 | 136.67236 | 38169 ft | 385 kts | 223° |
| 2026-05-06 06:02 | 34.35261 | 136.63296 | 38171 ft | 387 kts | 223° |
| 2026-05-06 06:03 | 34.30966 | 136.59356 | 38166 ft | 387 kts | 223° |
| 2026-05-06 06:03 | 34.26688 | 136.55377 | 38164 ft | 388 kts | 223° |
| 2026-05-06 06:04 | 34.22450 | 136.51384 | 38167 ft | 389 kts | 223° |
| 2026-05-06 06:04 | 34.18156 | 136.47354 | 38166 ft | 390 kts | 223° |
| 2026-05-06 06:05 | 34.13863 | 136.43338 | 38170 ft | 391 kts | 223° |
| 2026-05-06 06:05 | 34.09552 | 136.39311 | 38171 ft | 392 kts | 223° |
| 2026-05-06 06:06 | 34.05230 | 136.35281 | 38186 ft | 393 kts | 223° |
| 2026-05-06 06:06 | 34.00932 | 136.31277 | 38182 ft | 393 kts | 222° |
| 2026-05-06 06:07 | 33.96601 | 136.27249 | 38154 ft | 393 kts | 222° |
| 2026-05-06 06:07 | 33.92258 | 136.23214 | 38157 ft | 394 kts | 222° |
| 2026-05-06 06:08 | 33.87910 | 136.19180 | 38163 ft | 394 kts | 222° |
| 2026-05-06 06:08 | 33.83557 | 136.15147 | 38161 ft | 395 kts | 222° |
| 2026-05-06 06:09 | 33.79193 | 136.11110 | 38159 ft | 396 kts | 222° |
| 2026-05-06 06:09 | 33.74849 | 136.07097 | 38157 ft | 396 kts | 222° |
| 2026-05-06 06:10 | 33.70467 | 136.03053 | 38159 ft | 397 kts | 222° |
| 2026-05-06 06:10 | 33.66085 | 135.99016 | 38159 ft | 397 kts | 222° |
| 2026-05-06 06:11 | 33.61693 | 135.94974 | 38154 ft | 398 kts | 222° |
| 2026-05-06 06:11 | 33.57301 | 135.90937 | 38151 ft | 398 kts | 221° |
| 2026-05-06 06:12 | 33.52902 | 135.86899 | 38154 ft | 398 kts | 221° |
| 2026-05-06 06:12 | 33.48533 | 135.82895 | 38149 ft | 398 kts | 221° |
| 2026-05-06 06:13 | 33.43853 | 135.79257 | 38146 ft | 404 kts | 214° |
| 2026-05-06 06:13 | 33.38670 | 135.76524 | 38141 ft | 410 kts | 208° |
| 2026-05-06 06:14 | 33.33364 | 135.74021 | 38140 ft | 410 kts | 208° |
| 2026-05-06 06:14 | 33.28059 | 135.71496 | 38137 ft | 410 kts | 208° |
| 2026-05-06 06:15 | 33.22777 | 135.68986 | 38134 ft | 411 kts | 208° |
| 2026-05-06 06:15 | 33.17460 | 135.66464 | 38135 ft | 412 kts | 208° |
| 2026-05-06 06:16 | 33.12133 | 135.63942 | 38128 ft | 411 kts | 208° |
| 2026-05-06 06:16 | 33.06808 | 135.61424 | 38128 ft | 411 kts | 208° |
| 2026-05-06 06:17 | 33.01477 | 135.58907 | 38124 ft | 413 kts | 208° |
| 2026-05-06 06:17 | 32.96133 | 135.56386 | 38119 ft | 414 kts | 208° |
| 2026-05-06 06:18 | 32.90773 | 135.53863 | 38122 ft | 414 kts | 208° |
| 2026-05-06 06:18 | 32.85407 | 135.51339 | 38127 ft | 416 kts | 208° |
| 2026-05-06 06:19 | 32.80050 | 135.48823 | 38113 ft | 417 kts | 207° |
| 2026-05-06 06:19 | 32.74654 | 135.46292 | 38115 ft | 418 kts | 207° |
| 2026-05-06 06:20 | 32.69246 | 135.43759 | 38122 ft | 418 kts | 207° |
| 2026-05-06 06:20 | 32.63825 | 135.41223 | 38113 ft | 419 kts | 207° |
| 2026-05-06 06:21 | 32.62404 | 135.40559 | 38118 ft | 419 kts | 207° |